sensor_id;sensor_type;location;lat;lon;timestamp;P1;durP1;ratioP1;P2;durP2;ratioP2
5945;SDS011;2998;48.206;16.394;2022-11-20T00:00:52;81.13;;;31.60;;
5945;SDS011;2998;48.206;16.394;2022-11-20T00:03:21;77.73;;;30.40;;
5945;SDS011;2998;48.206;16.394;2022-11-20T00:05:49;81.90;;;32.10;;
5945;SDS011;2998;48.206;16.394;2022-11-20T00:08:17;69.57;;;29.43;;
5945;SDS011;2998;48.206;16.394;2022-11-20T00:10:45;76.70;;;30.07;;
5945;SDS011;2998;48.206;16.394;2022-11-20T00:13:14;58.43;;;27.27;;
5945;SDS011;2998;48.206;16.394;2022-11-20T00:15:42;74.13;;;30.87;;
5945;SDS011;2998;48.206;16.394;2022-11-20T00:18:10;64.70;;;29.03;;
5945;SDS011;2998;48.206;16.394;2022-11-20T00:20:38;71.50;;;29.07;;
5945;SDS011;2998;48.206;16.394;2022-11-20T00:23:06;71.07;;;30.60;;
5945;SDS011;2998;48.206;16.394;2022-11-20T00:25:34;79.20;;;30.40;;
5945;SDS011;2998;48.206;16.394;2022-11-20T00:28:02;69.67;;;29.40;;
5945;SDS011;2998;48.206;16.394;2022-11-20T00:30:32;63.87;;;29.17;;
5945;SDS011;2998;48.206;16.394;2022-11-20T00:33:00;64.80;;;29.80;;
5945;SDS011;2998;48.206;16.394;2022-11-20T00:35:28;64.03;;;28.83;;
5945;SDS011;2998;48.206;16.394;2022-11-20T00:37:56;68.80;;;29.83;;
5945;SDS011;2998;48.206;16.394;2022-11-20T00:40:24;76.53;;;31.07;;
5945;SDS011;2998;48.206;16.394;2022-11-20T00:42:52;75.23;;;30.77;;
5945;SDS011;2998;48.206;16.394;2022-11-20T00:45:20;66.50;;;29.47;;
5945;SDS011;2998;48.206;16.394;2022-11-20T00:47:49;79.60;;;31.40;;
5945;SDS011;2998;48.206;16.394;2022-11-20T00:50:17;67.13;;;29.60;;
5945;SDS011;2998;48.206;16.394;2022-11-20T00:52:45;75.97;;;31.13;;
5945;SDS011;2998;48.206;16.394;2022-11-20T00:55:13;73.80;;;28.83;;
5945;SDS011;2998;48.206;16.394;2022-11-20T00:57:41;74.43;;;30.07;;
5945;SDS011;2998;48.206;16.394;2022-11-20T01:00:09;70.70;;;29.90;;
5945;SDS011;2998;48.206;16.394;2022-11-20T01:02:37;77.63;;;31.90;;
5945;SDS011;2998;48.206;16.394;2022-11-20T01:05:07;78.53;;;30.47;;
5945;SDS011;2998;48.206;16.394;2022-11-20T01:07:35;69.00;;;28.77;;
5945;SDS011;2998;48.206;16.394;2022-11-20T01:10:03;79.53;;;32.00;;
5945;SDS011;2998;48.206;16.394;2022-11-20T01:12:32;67.47;;;28.43;;
5945;SDS011;2998;48.206;16.394;2022-11-20T01:15:00;69.80;;;30.33;;
5945;SDS011;2998;48.206;16.394;2022-11-20T01:17:28;60.37;;;28.20;;
5945;SDS011;2998;48.206;16.394;2022-11-20T01:19:56;66.30;;;29.70;;
5945;SDS011;2998;48.206;16.394;2022-11-20T01:22:25;71.80;;;29.80;;
5945;SDS011;2998;48.206;16.394;2022-11-20T01:24:53;66.50;;;28.37;;
5945;SDS011;2998;48.206;16.394;2022-11-20T01:27:21;69.20;;;30.80;;
5945;SDS011;2998;48.206;16.394;2022-11-20T01:29:49;64.17;;;28.13;;
5945;SDS011;2998;48.206;16.394;2022-11-20T01:32:22;77.37;;;31.40;;
5945;SDS011;2998;48.206;16.394;2022-11-20T01:34:50;76.87;;;30.60;;
5945;SDS011;2998;48.206;16.394;2022-11-20T01:37:18;67.80;;;29.17;;
5945;SDS011;2998;48.206;16.394;2022-11-20T01:39:47;77.87;;;31.17;;
5945;SDS011;2998;48.206;16.394;2022-11-20T01:42:15;78.30;;;30.77;;
5945;SDS011;2998;48.206;16.394;2022-11-20T01:48:26;79.67;;;30.20;;
5945;SDS011;2998;48.206;16.394;2022-11-20T01:50:57;76.33;;;30.97;;
5945;SDS011;2998;48.206;16.394;2022-11-20T01:53:27;67.17;;;29.43;;
5945;SDS011;2998;48.206;16.394;2022-11-20T01:55:58;66.13;;;28.40;;
5945;SDS011;2998;48.206;16.394;2022-11-20T01:58:28;70.87;;;28.10;;
5945;SDS011;2998;48.206;16.394;2022-11-20T02:01:01;59.93;;;28.60;;
5945;SDS011;2998;48.206;16.394;2022-11-20T02:03:30;62.07;;;26.90;;
5945;SDS011;2998;48.206;16.394;2022-11-20T02:06:01;59.30;;;26.83;;
5945;SDS011;2998;48.206;16.394;2022-11-20T02:08:32;57.77;;;27.57;;
5945;SDS011;2998;48.206;16.394;2022-11-20T02:11:02;70.77;;;31.10;;
5945;SDS011;2998;48.206;16.394;2022-11-20T02:13:29;55.13;;;25.97;;
5945;SDS011;2998;48.206;16.394;2022-11-20T02:16:14;62.57;;;27.97;;
5945;SDS011;2998;48.206;16.394;2022-11-20T02:18:43;55.23;;;25.50;;
5945;SDS011;2998;48.206;16.394;2022-11-20T02:21:20;51.23;;;25.37;;
5945;SDS011;2998;48.206;16.394;2022-11-20T02:24:03;56.17;;;27.20;;
5945;SDS011;2998;48.206;16.394;2022-11-20T02:26:33;55.47;;;28.13;;
5945;SDS011;2998;48.206;16.394;2022-11-20T02:29:02;57.07;;;26.70;;
5945;SDS011;2998;48.206;16.394;2022-11-20T02:31:35;61.80;;;28.60;;
5945;SDS011;2998;48.206;16.394;2022-11-20T02:34:03;59.83;;;26.40;;
5945;SDS011;2998;48.206;16.394;2022-11-20T02:36:32;55.93;;;26.60;;
5945;SDS011;2998;48.206;16.394;2022-11-20T02:39:03;53.17;;;28.77;;
5945;SDS011;2998;48.206;16.394;2022-11-20T02:41:32;53.93;;;27.30;;
5945;SDS011;2998;48.206;16.394;2022-11-20T02:44:01;66.60;;;29.10;;
5945;SDS011;2998;48.206;16.394;2022-11-20T02:46:30;72.37;;;29.67;;
5945;SDS011;2998;48.206;16.394;2022-11-20T02:48:58;64.43;;;28.53;;
5945;SDS011;2998;48.206;16.394;2022-11-20T02:51:26;64.47;;;28.07;;
5945;SDS011;2998;48.206;16.394;2022-11-20T02:53:53;72.20;;;29.13;;
5945;SDS011;2998;48.206;16.394;2022-11-20T02:56:23;72.00;;;31.57;;
5945;SDS011;2998;48.206;16.394;2022-11-20T02:58:51;63.20;;;27.50;;
5945;SDS011;2998;48.206;16.394;2022-11-20T03:01:19;70.30;;;31.27;;
5945;SDS011;2998;48.206;16.394;2022-11-20T03:03:47;61.03;;;27.00;;
5945;SDS011;2998;48.206;16.394;2022-11-20T03:06:15;74.17;;;30.17;;
5945;SDS011;2998;48.206;16.394;2022-11-20T03:08:44;69.43;;;28.43;;
5945;SDS011;2998;48.206;16.394;2022-11-20T03:11:12;70.60;;;28.43;;
5945;SDS011;2998;48.206;16.394;2022-11-20T03:13:41;56.97;;;26.30;;
5945;SDS011;2998;48.206;16.394;2022-11-20T03:16:10;57.23;;;25.67;;
5945;SDS011;2998;48.206;16.394;2022-11-20T03:18:39;70.10;;;29.37;;
5945;SDS011;2998;48.206;16.394;2022-11-20T03:21:08;76.17;;;31.00;;
5945;SDS011;2998;48.206;16.394;2022-11-20T03:23:36;75.53;;;31.23;;
5945;SDS011;2998;48.206;16.394;2022-11-20T03:26:08;72.17;;;29.50;;
5945;SDS011;2998;48.206;16.394;2022-11-20T03:28:37;67.53;;;28.47;;
5945;SDS011;2998;48.206;16.394;2022-11-20T03:31:07;67.23;;;28.43;;
5945;SDS011;2998;48.206;16.394;2022-11-20T03:33:36;73.03;;;31.30;;
5945;SDS011;2998;48.206;16.394;2022-11-20T03:36:04;66.97;;;31.47;;
5945;SDS011;2998;48.206;16.394;2022-11-20T03:38:34;68.10;;;29.30;;
5945;SDS011;2998;48.206;16.394;2022-11-20T03:41:02;73.97;;;27.70;;
5945;SDS011;2998;48.206;16.394;2022-11-20T03:43:31;65.40;;;27.87;;
5945;SDS011;2998;48.206;16.394;2022-11-20T03:46:00;61.73;;;28.50;;
5945;SDS011;2998;48.206;16.394;2022-11-20T03:48:29;67.07;;;27.73;;
5945;SDS011;2998;48.206;16.394;2022-11-20T03:51:07;68.80;;;27.10;;
5945;SDS011;2998;48.206;16.394;2022-11-20T03:53:36;66.80;;;27.20;;
5945;SDS011;2998;48.206;16.394;2022-11-20T03:56:04;69.80;;;28.07;;
5945;SDS011;2998;48.206;16.394;2022-11-20T03:58:33;58.47;;;27.97;;
5945;SDS011;2998;48.206;16.394;2022-11-20T04:01:06;67.67;;;27.53;;
5945;SDS011;2998;48.206;16.394;2022-11-20T04:03:36;68.43;;;28.90;;
5945;SDS011;2998;48.206;16.394;2022-11-20T04:06:05;67.70;;;28.47;;
5945;SDS011;2998;48.206;16.394;2022-11-20T04:08:34;75.40;;;30.30;;
5945;SDS011;2998;48.206;16.394;2022-11-20T04:11:09;70.70;;;27.97;;
5945;SDS011;2998;48.206;16.394;2022-11-20T04:13:38;65.77;;;28.27;;
5945;SDS011;2998;48.206;16.394;2022-11-20T04:16:06;66.67;;;26.80;;
5945;SDS011;2998;48.206;16.394;2022-11-20T04:18:36;73.43;;;29.10;;
5945;SDS011;2998;48.206;16.394;2022-11-20T04:21:04;64.80;;;27.30;;
5945;SDS011;2998;48.206;16.394;2022-11-20T04:23:33;61.50;;;27.70;;
5945;SDS011;2998;48.206;16.394;2022-11-20T04:26:01;63.90;;;26.83;;
5945;SDS011;2998;48.206;16.394;2022-11-20T04:28:30;77.50;;;31.97;;
5945;SDS011;2998;48.206;16.394;2022-11-20T04:31:01;64.07;;;27.20;;
5945;SDS011;2998;48.206;16.394;2022-11-20T04:33:31;61.03;;;26.63;;
5945;SDS011;2998;48.206;16.394;2022-11-20T04:36:02;74.13;;;29.57;;
5945;SDS011;2998;48.206;16.394;2022-11-20T04:38:30;59.23;;;27.03;;
5945;SDS011;2998;48.206;16.394;2022-11-20T04:40:58;59.70;;;26.87;;
5945;SDS011;2998;48.206;16.394;2022-11-20T04:43:26;58.93;;;26.57;;
5945;SDS011;2998;48.206;16.394;2022-11-20T04:45:55;60.23;;;27.40;;
5945;SDS011;2998;48.206;16.394;2022-11-20T04:48:24;68.63;;;26.70;;
5945;SDS011;2998;48.206;16.394;2022-11-20T04:50:52;70.17;;;28.57;;
5945;SDS011;2998;48.206;16.394;2022-11-20T04:53:22;65.07;;;29.07;;
5945;SDS011;2998;48.206;16.394;2022-11-20T04:55:50;57.80;;;26.17;;
5945;SDS011;2998;48.206;16.394;2022-11-20T04:58:18;60.73;;;28.53;;
5945;SDS011;2998;48.206;16.394;2022-11-20T05:00:46;52.63;;;25.73;;
5945;SDS011;2998;48.206;16.394;2022-11-20T05:03:14;60.90;;;27.60;;
5945;SDS011;2998;48.206;16.394;2022-11-20T05:05:42;58.13;;;27.50;;
5945;SDS011;2998;48.206;16.394;2022-11-20T05:08:10;54.23;;;25.07;;
5945;SDS011;2998;48.206;16.394;2022-11-20T05:10:39;52.67;;;25.67;;
5945;SDS011;2998;48.206;16.394;2022-11-20T05:13:07;56.30;;;24.40;;
5945;SDS011;2998;48.206;16.394;2022-11-20T05:15:35;57.33;;;26.43;;
5945;SDS011;2998;48.206;16.394;2022-11-20T05:18:03;57.27;;;26.73;;
5945;SDS011;2998;48.206;16.394;2022-11-20T05:20:31;58.83;;;27.73;;
5945;SDS011;2998;48.206;16.394;2022-11-20T05:22:59;62.83;;;30.60;;
5945;SDS011;2998;48.206;16.394;2022-11-20T05:25:27;58.43;;;28.03;;
5945;SDS011;2998;48.206;16.394;2022-11-20T05:27:56;54.20;;;27.80;;
5945;SDS011;2998;48.206;16.394;2022-11-20T05:30:24;67.00;;;29.73;;
5945;SDS011;2998;48.206;16.394;2022-11-20T05:32:52;62.87;;;29.50;;
5945;SDS011;2998;48.206;16.394;2022-11-20T05:35:20;64.93;;;27.53;;
5945;SDS011;2998;48.206;16.394;2022-11-20T05:37:47;55.20;;;26.60;;
5945;SDS011;2998;48.206;16.394;2022-11-20T05:40:15;63.73;;;27.30;;
5945;SDS011;2998;48.206;16.394;2022-11-20T05:42:43;64.90;;;28.73;;
5945;SDS011;2998;48.206;16.394;2022-11-20T05:45:13;61.33;;;27.30;;
5945;SDS011;2998;48.206;16.394;2022-11-20T05:47:41;67.23;;;28.57;;
5945;SDS011;2998;48.206;16.394;2022-11-20T05:50:08;77.27;;;29.73;;
5945;SDS011;2998;48.206;16.394;2022-11-20T05:52:36;75.63;;;30.73;;
5945;SDS011;2998;48.206;16.394;2022-11-20T05:55:05;78.80;;;27.90;;
5945;SDS011;2998;48.206;16.394;2022-11-20T05:57:33;72.37;;;27.97;;
5945;SDS011;2998;48.206;16.394;2022-11-20T06:00:01;69.20;;;29.60;;
5945;SDS011;2998;48.206;16.394;2022-11-20T06:02:30;73.20;;;28.83;;
5945;SDS011;2998;48.206;16.394;2022-11-20T06:05:02;69.73;;;27.47;;
5945;SDS011;2998;48.206;16.394;2022-11-20T06:07:30;75.10;;;30.50;;
5945;SDS011;2998;48.206;16.394;2022-11-20T06:09:58;69.47;;;27.90;;
5945;SDS011;2998;48.206;16.394;2022-11-20T06:12:26;71.90;;;30.83;;
5945;SDS011;2998;48.206;16.394;2022-11-20T06:14:54;76.03;;;30.23;;
5945;SDS011;2998;48.206;16.394;2022-11-20T06:17:21;75.63;;;31.53;;
5945;SDS011;2998;48.206;16.394;2022-11-20T06:19:51;78.33;;;30.80;;
5945;SDS011;2998;48.206;16.394;2022-11-20T06:22:19;71.57;;;28.90;;
5945;SDS011;2998;48.206;16.394;2022-11-20T06:24:47;72.87;;;30.07;;
5945;SDS011;2998;48.206;16.394;2022-11-20T06:27:15;71.13;;;28.23;;
5945;SDS011;2998;48.206;16.394;2022-11-20T06:29:43;74.20;;;29.90;;
5945;SDS011;2998;48.206;16.394;2022-11-20T06:32:11;85.33;;;30.20;;
5945;SDS011;2998;48.206;16.394;2022-11-20T06:34:39;61.70;;;26.33;;
5945;SDS011;2998;48.206;16.394;2022-11-20T06:37:08;77.57;;;31.00;;
5945;SDS011;2998;48.206;16.394;2022-11-20T06:39:36;70.17;;;27.60;;
5945;SDS011;2998;48.206;16.394;2022-11-20T06:42:04;72.23;;;29.37;;
5945;SDS011;2998;48.206;16.394;2022-11-20T06:44:32;71.80;;;29.03;;
5945;SDS011;2998;48.206;16.394;2022-11-20T06:47:00;65.80;;;28.20;;
5945;SDS011;2998;48.206;16.394;2022-11-20T06:49:28;67.33;;;28.70;;
5945;SDS011;2998;48.206;16.394;2022-11-20T06:51:56;77.20;;;28.67;;
5945;SDS011;2998;48.206;16.394;2022-11-20T06:54:26;71.30;;;28.87;;
5945;SDS011;2998;48.206;16.394;2022-11-20T06:56:54;67.03;;;26.77;;
5945;SDS011;2998;48.206;16.394;2022-11-20T06:59:22;78.83;;;30.37;;
5945;SDS011;2998;48.206;16.394;2022-11-20T07:01:50;73.97;;;30.13;;
5945;SDS011;2998;48.206;16.394;2022-11-20T07:04:18;76.67;;;29.50;;
5945;SDS011;2998;48.206;16.394;2022-11-20T07:06:46;80.67;;;30.00;;
5945;SDS011;2998;48.206;16.394;2022-11-20T07:09:13;78.47;;;30.13;;
5945;SDS011;2998;48.206;16.394;2022-11-20T07:11:44;72.70;;;31.10;;
5945;SDS011;2998;48.206;16.394;2022-11-20T07:14:11;75.10;;;29.60;;
5945;SDS011;2998;48.206;16.394;2022-11-20T07:16:39;73.37;;;29.30;;
5945;SDS011;2998;48.206;16.394;2022-11-20T07:19:07;76.90;;;30.70;;
5945;SDS011;2998;48.206;16.394;2022-11-20T07:21:35;67.23;;;30.00;;
5945;SDS011;2998;48.206;16.394;2022-11-20T07:24:03;79.57;;;30.60;;
5945;SDS011;2998;48.206;16.394;2022-11-20T07:26:31;73.83;;;29.10;;
5945;SDS011;2998;48.206;16.394;2022-11-20T07:29:01;82.17;;;31.53;;
5945;SDS011;2998;48.206;16.394;2022-11-20T07:31:28;75.33;;;30.87;;
5945;SDS011;2998;48.206;16.394;2022-11-20T07:33:56;79.20;;;31.03;;
5945;SDS011;2998;48.206;16.394;2022-11-20T07:36:24;85.27;;;32.40;;
5945;SDS011;2998;48.206;16.394;2022-11-20T07:38:52;80.33;;;30.80;;
5945;SDS011;2998;48.206;16.394;2022-11-20T07:41:20;63.23;;;29.33;;
5945;SDS011;2998;48.206;16.394;2022-11-20T07:43:48;78.23;;;33.00;;
5945;SDS011;2998;48.206;16.394;2022-11-20T07:46:17;80.03;;;31.13;;
5945;SDS011;2998;48.206;16.394;2022-11-20T07:48:45;59.63;;;28.27;;
5945;SDS011;2998;48.206;16.394;2022-11-20T07:51:13;63.80;;;30.10;;
5945;SDS011;2998;48.206;16.394;2022-11-20T07:53:41;63.80;;;29.30;;
5945;SDS011;2998;48.206;16.394;2022-11-20T07:56:09;61.50;;;27.90;;
5945;SDS011;2998;48.206;16.394;2022-11-20T07:58:37;59.67;;;27.60;;
5945;SDS011;2998;48.206;16.394;2022-11-20T08:01:05;62.63;;;30.23;;
5945;SDS011;2998;48.206;16.394;2022-11-20T08:03:35;59.40;;;27.70;;
5945;SDS011;2998;48.206;16.394;2022-11-20T08:06:04;60.37;;;26.80;;
5945;SDS011;2998;48.206;16.394;2022-11-20T08:08:33;61.77;;;28.53;;
5945;SDS011;2998;48.206;16.394;2022-11-20T08:11:07;54.40;;;26.50;;
5945;SDS011;2998;48.206;16.394;2022-11-20T08:13:53;52.27;;;26.13;;
5945;SDS011;2998;48.206;16.394;2022-11-20T08:16:39;56.30;;;25.60;;
5945;SDS011;2998;48.206;16.394;2022-11-20T08:19:08;51.03;;;25.37;;
5945;SDS011;2998;48.206;16.394;2022-11-20T08:21:36;60.57;;;26.37;;
5945;SDS011;2998;48.206;16.394;2022-11-20T08:24:04;50.73;;;24.17;;
5945;SDS011;2998;48.206;16.394;2022-11-20T08:26:33;59.10;;;27.57;;
5945;SDS011;2998;48.206;16.394;2022-11-20T08:29:01;59.17;;;26.77;;
5945;SDS011;2998;48.206;16.394;2022-11-20T08:31:30;50.20;;;25.17;;
5945;SDS011;2998;48.206;16.394;2022-11-20T08:33:58;48.10;;;25.20;;
5945;SDS011;2998;48.206;16.394;2022-11-20T08:36:33;41.43;;;23.80;;
5945;SDS011;2998;48.206;16.394;2022-11-20T08:39:02;45.33;;;22.57;;
5945;SDS011;2998;48.206;16.394;2022-11-20T08:41:30;42.13;;;23.57;;
5945;SDS011;2998;48.206;16.394;2022-11-20T08:44:00;48.63;;;25.87;;
5945;SDS011;2998;48.206;16.394;2022-11-20T08:46:31;50.33;;;24.80;;
5945;SDS011;2998;48.206;16.394;2022-11-20T08:49:00;52.00;;;25.60;;
5945;SDS011;2998;48.206;16.394;2022-11-20T08:51:28;50.93;;;23.77;;
5945;SDS011;2998;48.206;16.394;2022-11-20T08:53:58;50.47;;;24.90;;
5945;SDS011;2998;48.206;16.394;2022-11-20T08:56:27;51.57;;;26.33;;
5945;SDS011;2998;48.206;16.394;2022-11-20T08:58:55;51.37;;;24.67;;
5945;SDS011;2998;48.206;16.394;2022-11-20T09:01:42;53.10;;;24.20;;
5945;SDS011;2998;48.206;16.394;2022-11-20T09:04:10;47.97;;;24.27;;
5945;SDS011;2998;48.206;16.394;2022-11-20T09:06:40;50.27;;;25.80;;
5945;SDS011;2998;48.206;16.394;2022-11-20T09:09:10;46.53;;;22.77;;
5945;SDS011;2998;48.206;16.394;2022-11-20T09:11:37;40.43;;;22.77;;
5945;SDS011;2998;48.206;16.394;2022-11-20T09:14:05;44.83;;;23.10;;
5945;SDS011;2998;48.206;16.394;2022-11-20T09:16:33;41.83;;;22.50;;
5945;SDS011;2998;48.206;16.394;2022-11-20T09:19:02;46.37;;;22.93;;
5945;SDS011;2998;48.206;16.394;2022-11-20T09:21:50;43.17;;;22.63;;
5945;SDS011;2998;48.206;16.394;2022-11-20T09:24:26;45.03;;;23.97;;
5945;SDS011;2998;48.206;16.394;2022-11-20T09:26:54;43.67;;;23.10;;
5945;SDS011;2998;48.206;16.394;2022-11-20T09:29:22;31.33;;;20.10;;
5945;SDS011;2998;48.206;16.394;2022-11-20T09:31:50;38.97;;;23.03;;
5945;SDS011;2998;48.206;16.394;2022-11-20T09:34:18;33.20;;;19.53;;
5945;SDS011;2998;48.206;16.394;2022-11-20T09:36:46;37.50;;;21.37;;
5945;SDS011;2998;48.206;16.394;2022-11-20T09:39:14;38.63;;;22.97;;
5945;SDS011;2998;48.206;16.394;2022-11-20T09:47:42;39.97;;;23.30;;
5945;SDS011;2998;48.206;16.394;2022-11-20T09:50:20;39.33;;;24.30;;
5945;SDS011;2998;48.206;16.394;2022-11-20T09:52:56;35.83;;;21.00;;
5945;SDS011;2998;48.206;16.394;2022-11-20T09:55:31;37.57;;;20.27;;
5945;SDS011;2998;48.206;16.394;2022-11-20T09:58:01;39.50;;;21.33;;
5945;SDS011;2998;48.206;16.394;2022-11-20T10:00:29;36.83;;;22.30;;
5945;SDS011;2998;48.206;16.394;2022-11-20T10:02:58;39.10;;;22.60;;
5945;SDS011;2998;48.206;16.394;2022-11-20T10:05:30;32.93;;;22.33;;
5945;SDS011;2998;48.206;16.394;2022-11-20T10:08:01;39.70;;;22.27;;
5945;SDS011;2998;48.206;16.394;2022-11-20T10:10:38;38.00;;;22.27;;
5945;SDS011;2998;48.206;16.394;2022-11-20T10:13:20;34.30;;;20.30;;
5945;SDS011;2998;48.206;16.394;2022-11-20T10:15:58;31.57;;;20.27;;
5945;SDS011;2998;48.206;16.394;2022-11-20T10:18:36;32.97;;;19.27;;
5945;SDS011;2998;48.206;16.394;2022-11-20T10:21:13;35.03;;;20.87;;
5945;SDS011;2998;48.206;16.394;2022-11-20T10:26:46;32.20;;;20.33;;
5945;SDS011;2998;48.206;16.394;2022-11-20T10:29:22;34.73;;;20.47;;
5945;SDS011;2998;48.206;16.394;2022-11-20T10:31:54;8.90;;;7.80;;
5945;SDS011;2998;48.206;16.394;2022-11-20T10:34:25;7.50;;;6.80;;
5945;SDS011;2998;48.206;16.394;2022-11-20T10:36:55;7.03;;;6.50;;
5945;SDS011;2998;48.206;16.394;2022-11-20T10:39:32;7.00;;;6.37;;
5945;SDS011;2998;48.206;16.394;2022-11-20T10:42:02;7.47;;;6.87;;
5945;SDS011;2998;48.206;16.394;2022-11-20T10:44:37;8.13;;;7.33;;
5945;SDS011;2998;48.206;16.394;2022-11-20T10:47:32;6.20;;;5.70;;
5945;SDS011;2998;48.206;16.394;2022-11-20T10:50:01;6.87;;;6.37;;
5945;SDS011;2998;48.206;16.394;2022-11-20T10:52:32;6.30;;;5.80;;
5945;SDS011;2998;48.206;16.394;2022-11-20T10:55:06;7.60;;;6.17;;
5945;SDS011;2998;48.206;16.394;2022-11-20T10:57:45;7.43;;;6.73;;
5945;SDS011;2998;48.206;16.394;2022-11-20T11:00:20;7.50;;;6.40;;
5945;SDS011;2998;48.206;16.394;2022-11-20T11:02:49;9.20;;;5.30;;
5945;SDS011;2998;48.206;16.394;2022-11-20T11:05:22;5.90;;;5.40;;
5945;SDS011;2998;48.206;16.394;2022-11-20T11:07:54;6.20;;;5.70;;
5945;SDS011;2998;48.206;16.394;2022-11-20T11:10:23;5.33;;;4.93;;
5945;SDS011;2998;48.206;16.394;2022-11-20T11:12:53;5.73;;;5.33;;
5945;SDS011;2998;48.206;16.394;2022-11-20T11:15:26;6.17;;;5.67;;
5945;SDS011;2998;48.206;16.394;2022-11-20T11:17:56;11.30;;;8.10;;
5945;SDS011;2998;48.206;16.394;2022-11-20T11:20:24;12.20;;;8.40;;
5945;SDS011;2998;48.206;16.394;2022-11-20T11:22:53;26.00;;;14.20;;
5945;SDS011;2998;48.206;16.394;2022-11-20T11:25:27;7.33;;;6.63;;
5945;SDS011;2998;48.206;16.394;2022-11-20T11:27:57;7.13;;;6.10;;
5945;SDS011;2998;48.206;16.394;2022-11-20T11:30:28;8.50;;;7.10;;
5945;SDS011;2998;48.206;16.394;2022-11-20T11:33:05;6.43;;;5.70;;
5945;SDS011;2998;48.206;16.394;2022-11-20T11:35:38;6.07;;;5.53;;
5945;SDS011;2998;48.206;16.394;2022-11-20T11:38:17;5.03;;;4.67;;
5945;SDS011;2998;48.206;16.394;2022-11-20T11:40:49;9.10;;;5.57;;
5945;SDS011;2998;48.206;16.394;2022-11-20T11:43:17;13.60;;;8.80;;
5945;SDS011;2998;48.206;16.394;2022-11-20T11:46:08;4.70;;;4.23;;
5945;SDS011;2998;48.206;16.394;2022-11-20T11:48:55;7.47;;;5.87;;
5945;SDS011;2998;48.206;16.394;2022-11-20T11:51:25;6.53;;;5.93;;
5945;SDS011;2998;48.206;16.394;2022-11-20T11:53:55;10.50;;;7.40;;
5945;SDS011;2998;48.206;16.394;2022-11-20T11:56:24;5.27;;;4.80;;
5945;SDS011;2998;48.206;16.394;2022-11-20T11:58:52;6.57;;;5.97;;
5945;SDS011;2998;48.206;16.394;2022-11-20T12:01:24;9.83;;;6.10;;
5945;SDS011;2998;48.206;16.394;2022-11-20T12:04:00;8.43;;;7.60;;
5945;SDS011;2998;48.206;16.394;2022-11-20T12:06:32;5.50;;;5.00;;
5945;SDS011;2998;48.206;16.394;2022-11-20T12:09:02;6.63;;;6.03;;
5945;SDS011;2998;48.206;16.394;2022-11-20T12:11:33;6.10;;;5.50;;
5945;SDS011;2998;48.206;16.394;2022-11-20T12:14:09;7.67;;;6.90;;
5945;SDS011;2998;48.206;16.394;2022-11-20T12:16:42;7.20;;;6.50;;
5945;SDS011;2998;48.206;16.394;2022-11-20T12:19:11;8.60;;;7.37;;
5945;SDS011;2998;48.206;16.394;2022-11-20T12:21:43;6.13;;;5.70;;
5945;SDS011;2998;48.206;16.394;2022-11-20T12:27:28;11.17;;;7.70;;
5945;SDS011;2998;48.206;16.394;2022-11-20T12:30:11;8.20;;;7.43;;
5945;SDS011;2998;48.206;16.394;2022-11-20T12:32:51;9.67;;;7.67;;
5945;SDS011;2998;48.206;16.394;2022-11-20T12:35:36;10.00;;;8.37;;
5945;SDS011;2998;48.206;16.394;2022-11-20T12:38:20;8.50;;;7.70;;
5945;SDS011;2998;48.206;16.394;2022-11-20T12:41:15;12.43;;;9.43;;
5945;SDS011;2998;48.206;16.394;2022-11-20T12:44:04;8.10;;;7.30;;
5945;SDS011;2998;48.206;16.394;2022-11-20T12:47:05;10.67;;;8.23;;
5945;SDS011;2998;48.206;16.394;2022-11-20T12:49:41;12.53;;;7.47;;
5945;SDS011;2998;48.206;16.394;2022-11-20T12:52:16;9.70;;;8.40;;
5945;SDS011;2998;48.206;16.394;2022-11-20T12:55:14;7.20;;;6.50;;
5945;SDS011;2998;48.206;16.394;2022-11-20T12:57:50;8.53;;;7.73;;
5945;SDS011;2998;48.206;16.394;2022-11-20T13:00:22;7.97;;;7.10;;
5945;SDS011;2998;48.206;16.394;2022-11-20T13:03:00;7.63;;;6.90;;
5945;SDS011;2998;48.206;16.394;2022-11-20T13:05:39;7.10;;;6.50;;
5945;SDS011;2998;48.206;16.394;2022-11-20T13:08:15;11.90;;;7.30;;
5945;SDS011;2998;48.206;16.394;2022-11-20T13:10:49;7.93;;;7.23;;
5945;SDS011;2998;48.206;16.394;2022-11-20T13:13:22;8.67;;;7.77;;
5945;SDS011;2998;48.206;16.394;2022-11-20T13:15:53;9.63;;;8.20;;
5945;SDS011;2998;48.206;16.394;2022-11-20T13:18:23;7.23;;;6.53;;
5945;SDS011;2998;48.206;16.394;2022-11-20T13:20:52;9.00;;;7.27;;
5945;SDS011;2998;48.206;16.394;2022-11-20T13:23:23;8.87;;;7.83;;
5945;SDS011;2998;48.206;16.394;2022-11-20T13:26:03;8.33;;;7.10;;
5945;SDS011;2998;48.206;16.394;2022-11-20T13:28:41;11.57;;;8.87;;
5945;SDS011;2998;48.206;16.394;2022-11-20T13:31:09;16.63;;;7.30;;
5945;SDS011;2998;48.206;16.394;2022-11-20T13:33:53;14.10;;;11.13;;
5945;SDS011;2998;48.206;16.394;2022-11-20T13:36:25;8.43;;;7.63;;
5945;SDS011;2998;48.206;16.394;2022-11-20T13:38:54;7.50;;;6.80;;
5945;SDS011;2998;48.206;16.394;2022-11-20T13:41:24;8.83;;;8.03;;
5945;SDS011;2998;48.206;16.394;2022-11-20T13:43:58;7.67;;;6.60;;
5945;SDS011;2998;48.206;16.394;2022-11-20T13:46:37;7.77;;;6.97;;
5945;SDS011;2998;48.206;16.394;2022-11-20T13:49:08;11.07;;;8.60;;
5945;SDS011;2998;48.206;16.394;2022-11-20T13:51:42;8.20;;;7.50;;
5945;SDS011;2998;48.206;16.394;2022-11-20T13:54:44;8.83;;;8.07;;
5945;SDS011;2998;48.206;16.394;2022-11-20T13:57:38;8.10;;;7.30;;
5945;SDS011;2998;48.206;16.394;2022-11-20T14:00:12;8.80;;;8.00;;
5945;SDS011;2998;48.206;16.394;2022-11-20T14:02:42;9.60;;;8.70;;
5945;SDS011;2998;48.206;16.394;2022-11-20T14:05:15;7.90;;;7.10;;
5945;SDS011;2998;48.206;16.394;2022-11-20T14:07:49;7.70;;;6.60;;
5945;SDS011;2998;48.206;16.394;2022-11-20T14:10:21;8.23;;;7.33;;
5945;SDS011;2998;48.206;16.394;2022-11-20T14:12:57;8.73;;;7.77;;
5945;SDS011;2998;48.206;16.394;2022-11-20T14:15:26;17.30;;;9.77;;
5945;SDS011;2998;48.206;16.394;2022-11-20T14:17:56;11.73;;;6.90;;
5945;SDS011;2998;48.206;16.394;2022-11-20T14:20:24;13.20;;;8.93;;
5945;SDS011;2998;48.206;16.394;2022-11-20T14:22:55;23.57;;;15.57;;
5945;SDS011;2998;48.206;16.394;2022-11-20T14:25:23;18.00;;;12.10;;
5945;SDS011;2998;48.206;16.394;2022-11-20T14:27:54;15.93;;;10.33;;
5945;SDS011;2998;48.206;16.394;2022-11-20T14:30:24;12.50;;;8.40;;
5945;SDS011;2998;48.206;16.394;2022-11-20T14:32:53;12.03;;;8.87;;
5945;SDS011;2998;48.206;16.394;2022-11-20T14:35:23;10.17;;;7.93;;
5945;SDS011;2998;48.206;16.394;2022-11-20T14:37:55;9.30;;;7.80;;
5945;SDS011;2998;48.206;16.394;2022-11-20T14:40:25;6.67;;;6.03;;
5945;SDS011;2998;48.206;16.394;2022-11-20T14:42:55;16.97;;;10.67;;
5945;SDS011;2998;48.206;16.394;2022-11-20T14:45:23;10.37;;;9.27;;
5945;SDS011;2998;48.206;16.394;2022-11-20T14:47:52;14.40;;;10.00;;
5945;SDS011;2998;48.206;16.394;2022-11-20T14:50:22;9.23;;;7.60;;
5945;SDS011;2998;48.206;16.394;2022-11-20T14:52:52;13.70;;;11.60;;
5945;SDS011;2998;48.206;16.394;2022-11-20T14:55:29;11.37;;;10.27;;
5945;SDS011;2998;48.206;16.394;2022-11-20T14:58:00;9.67;;;8.70;;
5945;SDS011;2998;48.206;16.394;2022-11-20T15:00:29;12.87;;;11.23;;
5945;SDS011;2998;48.206;16.394;2022-11-20T15:02:58;17.07;;;11.70;;
5945;SDS011;2998;48.206;16.394;2022-11-20T15:05:37;16.80;;;12.30;;
5945;SDS011;2998;48.206;16.394;2022-11-20T15:08:12;26.83;;;20.27;;
5945;SDS011;2998;48.206;16.394;2022-11-20T15:10:46;21.40;;;15.13;;
5945;SDS011;2998;48.206;16.394;2022-11-20T15:13:16;19.77;;;11.97;;
5945;SDS011;2998;48.206;16.394;2022-11-20T15:15:48;16.40;;;11.57;;
5945;SDS011;2998;48.206;16.394;2022-11-20T15:18:18;30.27;;;16.37;;